Racecast

Mylee Sanders

Bayfield (CO) · 12 · CO D3A3A · Compare head to head

Athlete rating 87.6 2018 XC season
Best race 94.5 TF
Races 55
Seasons 5 2015 — 2019

RankedNation #130347·CO #2879·CO D3A #798·Team #20 ?

Speed rating — all races

Cross Country

XC speed rating

2018 XC 81.8

Bayfield (CO) · Grade 12

Date Meet Event Result Place Rating Difficulty PR/SR Flags
2018-10-18 Aspen High School 4345m 30:51.2 97th · 3rd on team 71.4 ★PR ★CR SR CSR
2018-10-12 Monte Vista Golf Course 5000m 29:59.5 64th · 7th on team 86.5 +0.046 ★CR SR CSR
2018-10-05 Montezuma County Fairgrounds 5000m 30:28 43rd · 5th on team 89.3 +0.093 ★CR SR CSR RSR
2018-09-22 Pagosa Springs High 5000m 33:13 53rd · 6th on team 83.9 +0.117 SR CSR RSR
2018-08-24 Norris Penrose Event Center 5000m 34:27.4 103rd · 5th on team 77.9 +0.067 ★CR SR CSR RSR

2017 XC 83.8

Bayfield (CO) · Grade 11

Date Meet Event Result Place Rating Difficulty PR/SR Flags
2017-09-29 Sweitzer Lake State Park 5000m 28:59.1 56th · 3rd on team 84.2 +0.002 ★PR ★CR SR CSR RSR
2017-09-15 Fort Lewis College 5000m 30:01 152nd · 3rd on team 83.7 +0.020 ★CR CSR RSR
2017-09-09 Cattails Golf Course 5000m 30:01 203rd · 3rd on team 83.6 +0.012 ★CR SR CSR RSR

2016 XC 82.6

Bayfield (CO) · Grade 10

Date Meet Event Result Place Rating Difficulty PR/SR Flags
2016-10-21 Confluence Park 5000m 30:01.3 101st · 8th on team 82.8 -0.000 ★CR CSR
2016-09-24 James M. Robb - Colorado River State Park Connected Lakes Section 5000m 29:23.4 128th · 7th on team 83.1 +0.002 PR ★CR SR CSR
2016-09-16 Hillcrest Golf Club 5000m 30:17.1 67th · 4th on team 84.9 +0.040 ★CR SR CSR RSR
2016-09-10 Cattails Golf Course 5000m 30:29.5 177th · 7th on team 81.8 +0.012 CR SR CSR RSR
2016-09-03 Colorado Mountain College 5000m 35:28.5 46th · 1st on team 80.6 +0.148 ★CR SR CSR RSR

2015 XC 83.4

Bayfield (CO) · Grade 9

Date Meet Event Result Place Rating Difficulty PR/SR Flags
2015-10-23 Pagosa Springs High 5000m 30:01.5 66th · 7th on team 92.0 +0.117 PR ★CR R SR CSR RSR
2015-10-03 Chicken Creek XC Course 5000m 48:50.8 44th · 6th on team +0.096 ★CR CSR
2015-09-26 Pagosa Springs High 5000m 31:45.5 65th · 6th on team 87.5 +0.117 PR CR R SR CSR RSR
2015-09-11 Hillcrest Golf Club 5000m 33:27.9 62nd · 6th on team 77.3 +0.040 CR R CSR RSR
2015-09-05 Cattails Golf Course 5000m 32:20.6 93rd · 5th on team 76.8 +0.012 PR CR R SR CSR RSR

Track & Field

TF speed rating

2019 TF

Bayfield (CO) · Grade 12

Date Meet Event Result Place Rating Difficulty PR/SR Flags
2019-04-27 High Altitude Challenge 200m 29.4 11th · 1st on team +0.020 SR
2019-04-27 High Altitude Challenge 100m 13.99 12th · 1st on team +0.020 SR
2019-04-13 Pine River Invitational 200m 30.19 5th · 1st on team +0.019
2019-04-13 Pine River Invitational 100m 14.65 8th · 1st on team +0.019
2019-03-16 Piedra Vista Invitational 100m 14.47 20th · 2nd on team -0.005 SR
2019-03-16 Piedra Vista Invitational 200m 30.11 18th · 1st on team -0.005 SR
2019-03-09 Farmington Early Bird 200m 30.83 20th · 2nd on team -0.006 SR
2019-03-09 Farmington Early Bird 100m 15.13 30th · 2nd on team -0.006 SR

2018 TF

Bayfield (CO) · Grade 11

Date Meet Event Result Place Rating Difficulty PR/SR Flags
2018-05-12 Monte Vista Last Chance Meet 100m 13.99 5th · 1st on team +0.028
2018-05-12 Monte Vista Last Chance Meet 200m 28.49 6th · 1st on team +0.028 ★PR SR
2018-05-05 Doherty Spartan Invitational 400m 1:10.63 37th · 2nd on team -0.004 ★PR SR
2018-05-05 Doherty Spartan Invitational 100m 14.12 37th · 2nd on team -0.004
2018-05-04 Canon City Blossom Invitational 200m 29.06 9th · 1st on team -0.003
2018-05-04 Canon City Blossom Invitational 100m 14.06 15th · 1st on team -0.003
2018-05-01 San Juan Basin League Championship 200m 28.65 2nd · 1st on team +0.010 PR SR
2018-04-28 High Altitude Challenge 100m 13.91 8th · 2nd on team +0.020 ★PR SR
2018-04-28 High Altitude Challenge 200m 28.84 9th · 1st on team +0.020 PR SR
2018-04-21 Aztec Invitational 200m 29.41 21st · 1st on team +0.001
2018-04-21 Aztec Invitational 200m 29.41 21st · 1st on team +0.010
2018-04-21 Aztec Invitational 100m 14.04 27th · 2nd on team +0.001
2018-04-21 Aztec Invitational 100m 14.04 27th · 2nd on team +0.010
2018-04-14 Pine River Invitational 100m 14.34 10th · 1st on team +0.019
2018-04-07 Abel Velasquez Invitational 200m 29.35 5th · 1st on team +0.010 PR SR
2018-04-07 Abel Velasquez Invitational 100m 14.01 5th · 1st on team +0.010 PR SR
2018-03-16 Bloomfield Bobcat Invitational (Colorado version) 100m 15.04 15th · 1st on team +0.010 SR
2018-03-16 Bobcat Invitational 100m 15.04 15th · 1st on team -0.002
2018-03-16 Bobcat Invitational 200m 30.75 9th · 1st on team -0.002 PR SR
2018-03-16 Bloomfield Bobcat Invitational (Colorado version) 200m 30.75 9th · 1st on team +0.010
2018-03-10 Piedra Vista Invitational 100m 15.31 25th · 2nd on team -0.005 SR
2018-03-10 Piedra Vista Invitational 200m 31.5 22nd · 1st on team -0.005 PR SR

2017 TF

Bayfield (CO) · Grade 10

Date Meet Event Result Place Rating Difficulty PR/SR Flags
2017-05-06 Terry Allen Invitational 100m 14.66 10th · 1st on team +0.014 PR SR
2017-05-02 High Altitude Challenge 100m 14.86 23rd · 1st on team +0.020 PR SR
2017-04-08 Abel Velasquez Invitational 200m 31.79 15th · 1st on team +0.010 PR SR
2017-03-17 Bobcat Quad 100m 14.92 29th · 5th on team -0.002 PR SR
2017-03-11 Piedra Vista Invitational 400m 1:23.52 24th · 2nd on team -0.005 PR SR

2016 TF 94.5

Bayfield (CO) · Grade 9

Date Meet Event Result Place Rating Difficulty PR/SR Flags
2016-04-27 Pine River Invitational 800m 3:24.68 13th · 1st on team 94.5 +0.019 ★PR ★R SR RSR
2016-04-22 Aztec B&B Invitational 100m 15.94 66th · 3rd on team +0.001 PR SR